sensor_id;sensor_type;location;lat;lon;timestamp;P1;durP1;ratioP1;P2;durP2;ratioP2
37349;SDS011;23231;52.358;4.926;2024-03-23T00:57:33;21.55;;;5.20;;
37349;SDS011;23231;52.358;4.926;2024-03-23T01:02:37;19.00;;;4.40;;
37349;SDS011;23231;52.358;4.926;2024-03-23T01:07:39;15.73;;;4.13;;
37349;SDS011;23231;52.358;4.926;2024-03-23T01:12:41;19.92;;;4.38;;
37349;SDS011;23231;52.358;4.926;2024-03-23T01:17:42;15.20;;;3.60;;
37349;SDS011;23231;52.358;4.926;2024-03-23T01:22:44;17.30;;;4.15;;
37349;SDS011;23231;52.358;4.926;2024-03-23T01:27:45;21.15;;;4.72;;
37349;SDS011;23231;52.358;4.926;2024-03-23T01:32:50;22.08;;;4.60;;
37349;SDS011;23231;52.358;4.926;2024-03-23T01:38:04;21.33;;;3.97;;
37349;SDS011;23231;52.358;4.926;2024-03-23T01:43:07;19.60;;;3.50;;
37349;SDS011;23231;52.358;4.926;2024-03-23T01:48:09;20.70;;;3.80;;
37349;SDS011;23231;52.358;4.926;2024-03-23T01:53:12;17.98;;;3.40;;
37349;SDS011;23231;52.358;4.926;2024-03-23T01:58:19;13.43;;;3.30;;
37349;SDS011;23231;52.358;4.926;2024-03-23T02:03:27;12.38;;;3.60;;
37349;SDS011;23231;52.358;4.926;2024-03-23T02:08:32;11.40;;;2.50;;
37349;SDS011;23231;52.358;4.926;2024-03-23T02:13:35;8.80;;;2.17;;
37349;SDS011;23231;52.358;4.926;2024-03-23T02:18:39;12.05;;;2.63;;
37349;SDS011;23231;52.358;4.926;2024-03-23T02:23:41;13.38;;;2.55;;
37349;SDS011;23231;52.358;4.926;2024-03-23T02:28:42;10.43;;;2.28;;
37349;SDS011;23231;52.358;4.926;2024-03-23T02:33:44;18.25;;;4.03;;
37349;SDS011;23231;52.358;4.926;2024-03-23T02:38:47;10.23;;;2.38;;
37349;SDS011;23231;52.358;4.926;2024-03-23T02:43:50;11.27;;;2.78;;
37349;SDS011;23231;52.358;4.926;2024-03-23T02:48:52;10.77;;;2.03;;
37349;SDS011;23231;52.358;4.926;2024-03-23T02:53:56;15.02;;;2.58;;
37349;SDS011;23231;52.358;4.926;2024-03-23T02:58:59;11.38;;;1.95;;
37349;SDS011;23231;52.358;4.926;2024-03-23T03:04:03;16.08;;;2.85;;
37349;SDS011;23231;52.358;4.926;2024-03-23T03:09:09;13.43;;;3.15;;
37349;SDS011;23231;52.358;4.926;2024-03-23T03:14:11;11.25;;;2.33;;
37349;SDS011;23231;52.358;4.926;2024-03-23T03:19:17;14.77;;;2.30;;
37349;SDS011;23231;52.358;4.926;2024-03-23T03:24:23;9.90;;;2.17;;
37349;SDS011;23231;52.358;4.926;2024-03-23T03:29:24;13.13;;;2.03;;
37349;SDS011;23231;52.358;4.926;2024-03-23T03:34:34;11.10;;;2.45;;
37349;SDS011;23231;52.358;4.926;2024-03-23T03:39:34;11.95;;;2.00;;
37349;SDS011;23231;52.358;4.926;2024-03-23T03:44:40;10.27;;;2.17;;
37349;SDS011;23231;52.358;4.926;2024-03-23T03:49:43;13.50;;;2.47;;
37349;SDS011;23231;52.358;4.926;2024-03-23T03:54:44;10.68;;;1.88;;
37349;SDS011;23231;52.358;4.926;2024-03-23T03:59:44;13.48;;;2.05;;
37349;SDS011;23231;52.358;4.926;2024-03-23T04:04:45;8.60;;;1.80;;
37349;SDS011;23231;52.358;4.926;2024-03-23T04:09:45;9.98;;;2.25;;
37349;SDS011;23231;52.358;4.926;2024-03-23T04:14:51;9.68;;;2.22;;
37349;SDS011;23231;52.358;4.926;2024-03-23T04:20:00;14.00;;;2.45;;
37349;SDS011;23231;52.358;4.926;2024-03-23T04:25:13;10.00;;;2.00;;
37349;SDS011;23231;52.358;4.926;2024-03-23T04:30:23;7.60;;;1.92;;
37349;SDS011;23231;52.358;4.926;2024-03-23T04:35:30;7.57;;;1.95;;
37349;SDS011;23231;52.358;4.926;2024-03-23T04:40:32;12.30;;;2.50;;
37349;SDS011;23231;52.358;4.926;2024-03-23T04:45:34;13.23;;;2.40;;
37349;SDS011;23231;52.358;4.926;2024-03-23T04:50:37;10.43;;;1.98;;
37349;SDS011;23231;52.358;4.926;2024-03-23T04:55:38;8.05;;;1.83;;
37349;SDS011;23231;52.358;4.926;2024-03-23T05:00:39;11.13;;;2.53;;
37349;SDS011;23231;52.358;4.926;2024-03-23T05:05:42;12.15;;;2.28;;
37349;SDS011;23231;52.358;4.926;2024-03-23T05:10:51;12.13;;;2.55;;
37349;SDS011;23231;52.358;4.926;2024-03-23T05:15:53;13.13;;;2.50;;
37349;SDS011;23231;52.358;4.926;2024-03-23T05:20:58;16.05;;;2.30;;
37349;SDS011;23231;52.358;4.926;2024-03-23T05:26:00;13.50;;;3.10;;
37349;SDS011;23231;52.358;4.926;2024-03-23T05:31:06;11.27;;;2.33;;
37349;SDS011;23231;52.358;4.926;2024-03-23T05:36:06;8.57;;;2.05;;
37349;SDS011;23231;52.358;4.926;2024-03-23T05:41:11;10.23;;;3.13;;
37349;SDS011;23231;52.358;4.926;2024-03-23T05:46:13;11.38;;;2.72;;
37349;SDS011;23231;52.358;4.926;2024-03-23T05:51:16;11.88;;;2.65;;
37349;SDS011;23231;52.358;4.926;2024-03-23T05:56:19;14.32;;;3.08;;
37349;SDS011;23231;52.358;4.926;2024-03-23T06:01:20;12.23;;;3.15;;
37349;SDS011;23231;52.358;4.926;2024-03-23T06:06:20;13.75;;;3.30;;
37349;SDS011;23231;52.358;4.926;2024-03-23T06:11:21;11.98;;;2.80;;
37349;SDS011;23231;52.358;4.926;2024-03-23T06:16:23;16.88;;;6.32;;
37349;SDS011;23231;52.358;4.926;2024-03-23T06:21:32;9.98;;;3.13;;
37349;SDS011;23231;52.358;4.926;2024-03-23T06:26:39;14.98;;;4.20;;
37349;SDS011;23231;52.358;4.926;2024-03-23T06:31:51;12.48;;;3.67;;
37349;SDS011;23231;52.358;4.926;2024-03-23T06:37:00;12.40;;;3.93;;
37349;SDS011;23231;52.358;4.926;2024-03-23T06:42:13;15.82;;;3.53;;
37349;SDS011;23231;52.358;4.926;2024-03-23T06:47:20;9.52;;;3.00;;
37349;SDS011;23231;52.358;4.926;2024-03-23T06:52:31;12.77;;;3.25;;
37349;SDS011;23231;52.358;4.926;2024-03-23T06:57:37;12.07;;;2.95;;
37349;SDS011;23231;52.358;4.926;2024-03-23T07:02:41;18.33;;;3.28;;
37349;SDS011;23231;52.358;4.926;2024-03-23T07:08:08;12.30;;;2.83;;
37349;SDS011;23231;52.358;4.926;2024-03-23T07:13:24;9.68;;;2.65;;
37349;SDS011;23231;52.358;4.926;2024-03-23T07:18:31;15.13;;;2.80;;
37349;SDS011;23231;52.358;4.926;2024-03-23T07:23:37;11.43;;;2.80;;
37349;SDS011;23231;52.358;4.926;2024-03-23T07:28:48;9.80;;;2.70;;
37349;SDS011;23231;52.358;4.926;2024-03-23T07:34:00;9.80;;;2.55;;
37349;SDS011;23231;52.358;4.926;2024-03-23T07:39:07;15.10;;;2.90;;
37349;SDS011;23231;52.358;4.926;2024-03-23T07:44:16;11.73;;;2.58;;
37349;SDS011;23231;52.358;4.926;2024-03-23T07:49:18;11.70;;;2.83;;
37349;SDS011;23231;52.358;4.926;2024-03-23T07:54:24;10.25;;;2.25;;
37349;SDS011;23231;52.358;4.926;2024-03-23T07:59:32;8.55;;;2.25;;
37349;SDS011;23231;52.358;4.926;2024-03-23T08:04:54;10.77;;;2.28;;
37349;SDS011;23231;52.358;4.926;2024-03-23T08:10:25;12.05;;;2.45;;
37349;SDS011;23231;52.358;4.926;2024-03-23T08:15:39;13.80;;;2.05;;
37349;SDS011;23231;52.358;4.926;2024-03-23T08:21:06;9.45;;;1.92;;
37349;SDS011;23231;52.358;4.926;2024-03-23T08:26:31;13.43;;;2.20;;
37349;SDS011;23231;52.358;4.926;2024-03-23T08:31:41;12.07;;;2.63;;
37349;SDS011;23231;52.358;4.926;2024-03-23T08:36:53;9.85;;;2.15;;
37349;SDS011;23231;52.358;4.926;2024-03-23T08:42:03;12.45;;;2.13;;
37349;SDS011;23231;52.358;4.926;2024-03-23T08:47:17;11.75;;;2.72;;
37349;SDS011;23231;52.358;4.926;2024-03-23T08:52:27;8.77;;;1.75;;
37349;SDS011;23231;52.358;4.926;2024-03-23T08:57:36;7.75;;;2.08;;
37349;SDS011;23231;52.358;4.926;2024-03-23T09:02:47;10.90;;;2.40;;
37349;SDS011;23231;52.358;4.926;2024-03-23T09:08:15;12.68;;;2.67;;
37349;SDS011;23231;52.358;4.926;2024-03-23T09:13:27;11.00;;;2.47;;
37349;SDS011;23231;52.358;4.926;2024-03-23T09:18:36;9.38;;;2.42;;
37349;SDS011;23231;52.358;4.926;2024-03-23T09:23:39;9.07;;;2.22;;
37349;SDS011;23231;52.358;4.926;2024-03-23T09:28:50;11.00;;;2.35;;
37349;SDS011;23231;52.358;4.926;2024-03-23T09:33:58;13.52;;;3.35;;
37349;SDS011;23231;52.358;4.926;2024-03-23T09:39:09;11.80;;;2.60;;
37349;SDS011;23231;52.358;4.926;2024-03-23T09:44:31;11.95;;;2.60;;
37349;SDS011;23231;52.358;4.926;2024-03-23T09:49:38;9.55;;;2.42;;
37349;SDS011;23231;52.358;4.926;2024-03-23T09:55:11;13.38;;;2.53;;
37349;SDS011;23231;52.358;4.926;2024-03-23T10:00:21;18.88;;;2.28;;
37349;SDS011;23231;52.358;4.926;2024-03-23T10:05:31;14.32;;;2.60;;
37349;SDS011;23231;52.358;4.926;2024-03-23T10:10:37;8.98;;;2.42;;
37349;SDS011;23231;52.358;4.926;2024-03-23T10:16:00;12.43;;;2.33;;
37349;SDS011;23231;52.358;4.926;2024-03-23T10:21:09;11.30;;;1.95;;
37349;SDS011;23231;52.358;4.926;2024-03-23T10:26:21;10.82;;;2.03;;
37349;SDS011;23231;52.358;4.926;2024-03-23T10:31:30;13.43;;;2.88;;
37349;SDS011;23231;52.358;4.926;2024-03-23T10:36:36;11.52;;;2.75;;
37349;SDS011;23231;52.358;4.926;2024-03-23T10:41:49;14.85;;;3.75;;
37349;SDS011;23231;52.358;4.926;2024-03-23T10:47:00;11.98;;;2.88;;
37349;SDS011;23231;52.358;4.926;2024-03-23T10:52:07;15.10;;;2.50;;
37349;SDS011;23231;52.358;4.926;2024-03-23T10:57:13;11.55;;;2.60;;
37349;SDS011;23231;52.358;4.926;2024-03-23T11:02:24;9.43;;;2.42;;
37349;SDS011;23231;52.358;4.926;2024-03-23T11:07:34;12.20;;;2.33;;
37349;SDS011;23231;52.358;4.926;2024-03-23T11:12:43;13.73;;;2.70;;
37349;SDS011;23231;52.358;4.926;2024-03-23T11:18:03;11.75;;;2.50;;
37349;SDS011;23231;52.358;4.926;2024-03-23T11:23:30;8.98;;;2.05;;
37349;SDS011;23231;52.358;4.926;2024-03-23T11:29:09;7.22;;;1.77;;
37349;SDS011;23231;52.358;4.926;2024-03-23T11:34:13;12.48;;;2.50;;
37349;SDS011;23231;52.358;4.926;2024-03-23T11:39:19;14.38;;;2.45;;
37349;SDS011;23231;52.358;4.926;2024-03-23T11:44:26;10.57;;;2.33;;
37349;SDS011;23231;52.358;4.926;2024-03-23T11:49:34;12.45;;;1.77;;
37349;SDS011;23231;52.358;4.926;2024-03-23T11:54:45;10.68;;;2.28;;
37349;SDS011;23231;52.358;4.926;2024-03-23T11:59:51;9.20;;;2.35;;
37349;SDS011;23231;52.358;4.926;2024-03-23T12:05:13;6.40;;;1.67;;
37349;SDS011;23231;52.358;4.926;2024-03-23T12:10:19;8.82;;;1.52;;
37349;SDS011;23231;52.358;4.926;2024-03-23T12:15:34;7.07;;;2.25;;
37349;SDS011;23231;52.358;4.926;2024-03-23T12:20:35;17.30;;;2.15;;
37349;SDS011;23231;52.358;4.926;2024-03-23T12:25:35;12.18;;;2.67;;
37349;SDS011;23231;52.358;4.926;2024-03-23T12:30:38;8.73;;;2.22;;
37349;SDS011;23231;52.358;4.926;2024-03-23T12:35:39;11.52;;;2.58;;
37349;SDS011;23231;52.358;4.926;2024-03-23T12:40:40;15.88;;;2.40;;
37349;SDS011;23231;52.358;4.926;2024-03-23T12:45:41;14.77;;;2.45;;
37349;SDS011;23231;52.358;4.926;2024-03-23T12:50:46;9.73;;;2.27;;
37349;SDS011;23231;52.358;4.926;2024-03-23T12:55:46;8.63;;;2.05;;
37349;SDS011;23231;52.358;4.926;2024-03-23T13:00:47;12.77;;;2.10;;
37349;SDS011;23231;52.358;4.926;2024-03-23T13:05:53;9.38;;;1.70;;
37349;SDS011;23231;52.358;4.926;2024-03-23T13:10:54;8.43;;;1.85;;
37349;SDS011;23231;52.358;4.926;2024-03-23T13:15:55;9.20;;;1.60;;
37349;SDS011;23231;52.358;4.926;2024-03-23T13:20:55;7.65;;;1.63;;
37349;SDS011;23231;52.358;4.926;2024-03-23T13:25:56;8.40;;;2.40;;
37349;SDS011;23231;52.358;4.926;2024-03-23T13:30:56;8.88;;;1.83;;
37349;SDS011;23231;52.358;4.926;2024-03-23T13:35:58;8.93;;;2.03;;
37349;SDS011;23231;52.358;4.926;2024-03-23T13:40:59;7.35;;;1.92;;
37349;SDS011;23231;52.358;4.926;2024-03-23T13:46:00;9.75;;;2.00;;
37349;SDS011;23231;52.358;4.926;2024-03-23T13:51:03;10.77;;;2.10;;
37349;SDS011;23231;52.358;4.926;2024-03-23T13:56:04;9.05;;;1.83;;
37349;SDS011;23231;52.358;4.926;2024-03-23T14:01:05;7.05;;;1.80;;
37349;SDS011;23231;52.358;4.926;2024-03-23T14:06:06;10.50;;;2.47;;
37349;SDS011;23231;52.358;4.926;2024-03-23T14:11:08;5.93;;;1.70;;
37349;SDS011;23231;52.358;4.926;2024-03-23T14:16:09;8.27;;;2.20;;
37349;SDS011;23231;52.358;4.926;2024-03-23T14:21:09;7.90;;;1.92;;
37349;SDS011;23231;52.358;4.926;2024-03-23T14:26:10;10.45;;;1.80;;
37349;SDS011;23231;52.358;4.926;2024-03-23T14:31:11;10.05;;;1.83;;
37349;SDS011;23231;52.358;4.926;2024-03-23T14:36:12;7.30;;;1.50;;
37349;SDS011;23231;52.358;4.926;2024-03-23T14:41:16;9.33;;;1.90;;
37349;SDS011;23231;52.358;4.926;2024-03-23T14:46:16;12.77;;;3.05;;
37349;SDS011;23231;52.358;4.926;2024-03-23T14:51:17;9.23;;;1.83;;
37349;SDS011;23231;52.358;4.926;2024-03-23T14:56:17;8.10;;;1.50;;
37349;SDS011;23231;52.358;4.926;2024-03-23T15:01:18;12.98;;;1.90;;
37349;SDS011;23231;52.358;4.926;2024-03-23T15:06:19;7.53;;;1.80;;
37349;SDS011;23231;52.358;4.926;2024-03-23T15:11:19;12.02;;;1.85;;
37349;SDS011;23231;52.358;4.926;2024-03-23T15:16:20;10.25;;;1.92;;
37349;SDS011;23231;52.358;4.926;2024-03-23T15:21:20;7.95;;;1.60;;
37349;SDS011;23231;52.358;4.926;2024-03-23T15:26:21;7.50;;;2.15;;
37349;SDS011;23231;52.358;4.926;2024-03-23T15:31:23;7.05;;;1.45;;
37349;SDS011;23231;52.358;4.926;2024-03-23T15:36:24;6.53;;;2.00;;
37349;SDS011;23231;52.358;4.926;2024-03-23T15:41:24;4.75;;;1.33;;
37349;SDS011;23231;52.358;4.926;2024-03-23T15:46:25;3.90;;;1.38;;
37349;SDS011;23231;52.358;4.926;2024-03-23T15:51:25;6.78;;;1.55;;
37349;SDS011;23231;52.358;4.926;2024-03-23T15:56:31;5.93;;;1.30;;
37349;SDS011;23231;52.358;4.926;2024-03-23T16:01:32;7.50;;;1.40;;
37349;SDS011;23231;52.358;4.926;2024-03-23T16:06:37;5.43;;;1.27;;
37349;SDS011;23231;52.358;4.926;2024-03-23T16:11:38;7.40;;;1.75;;
37349;SDS011;23231;52.358;4.926;2024-03-23T16:16:38;4.90;;;1.02;;
37349;SDS011;23231;52.358;4.926;2024-03-23T16:21:38;3.40;;;0.93;;
37349;SDS011;23231;52.358;4.926;2024-03-23T16:26:39;3.38;;;0.80;;
37349;SDS011;23231;52.358;4.926;2024-03-23T16:31:40;6.50;;;1.40;;
37349;SDS011;23231;52.358;4.926;2024-03-23T16:36:40;6.93;;;1.30;;
37349;SDS011;23231;52.358;4.926;2024-03-23T16:41:41;6.28;;;1.42;;
37349;SDS011;23231;52.358;4.926;2024-03-23T16:46:41;6.00;;;1.77;;
37349;SDS011;23231;52.358;4.926;2024-03-23T16:51:44;7.63;;;1.95;;
37349;SDS011;23231;52.358;4.926;2024-03-23T16:56:45;11.35;;;2.05;;
37349;SDS011;23231;52.358;4.926;2024-03-23T17:01:45;5.47;;;1.88;;
37349;SDS011;23231;52.358;4.926;2024-03-23T17:06:46;6.28;;;2.00;;
37349;SDS011;23231;52.358;4.926;2024-03-23T17:11:46;8.23;;;2.20;;
37349;SDS011;23231;52.358;4.926;2024-03-23T17:16:48;8.95;;;2.00;;
37349;SDS011;23231;52.358;4.926;2024-03-23T17:21:51;8.68;;;2.20;;
37349;SDS011;23231;52.358;4.926;2024-03-23T17:26:51;9.20;;;1.80;;
37349;SDS011;23231;52.358;4.926;2024-03-23T17:31:52;6.55;;;1.88;;
37349;SDS011;23231;52.358;4.926;2024-03-23T17:36:52;8.27;;;1.60;;
37349;SDS011;23231;52.358;4.926;2024-03-23T17:41:53;7.80;;;1.70;;
37349;SDS011;23231;52.358;4.926;2024-03-23T17:46:56;5.28;;;1.58;;
37349;SDS011;23231;52.358;4.926;2024-03-23T17:51:58;6.82;;;1.80;;
37349;SDS011;23231;52.358;4.926;2024-03-23T17:57:00;6.80;;;1.60;;
37349;SDS011;23231;52.358;4.926;2024-03-23T18:02:00;8.35;;;2.00;;
37349;SDS011;23231;52.358;4.926;2024-03-23T18:07:01;11.15;;;2.42;;
37349;SDS011;23231;52.358;4.926;2024-03-23T18:12:05;8.68;;;2.50;;
37349;SDS011;23231;52.358;4.926;2024-03-23T18:22:23;10.30;;;2.83;;
37349;SDS011;23231;52.358;4.926;2024-03-23T18:27:24;10.75;;;4.03;;
37349;SDS011;23231;52.358;4.926;2024-03-23T18:32:24;10.85;;;3.80;;
37349;SDS011;23231;52.358;4.926;2024-03-23T18:37:25;14.07;;;4.90;;
37349;SDS011;23231;52.358;4.926;2024-03-23T18:42:31;12.48;;;3.88;;
37349;SDS011;23231;52.358;4.926;2024-03-23T18:47:34;13.85;;;3.33;;
37349;SDS011;23231;52.358;4.926;2024-03-23T18:52:38;8.63;;;2.90;;
37349;SDS011;23231;52.358;4.926;2024-03-23T18:57:40;13.80;;;3.72;;
37349;SDS011;23231;52.358;4.926;2024-03-23T19:02:43;13.65;;;3.28;;
37349;SDS011;23231;52.358;4.926;2024-03-23T19:07:43;18.48;;;3.78;;
37349;SDS011;23231;52.358;4.926;2024-03-23T19:12:45;13.30;;;3.63;;
37349;SDS011;23231;52.358;4.926;2024-03-23T19:17:45;9.20;;;3.03;;
37349;SDS011;23231;52.358;4.926;2024-03-23T19:22:47;16.42;;;3.10;;
37349;SDS011;23231;52.358;4.926;2024-03-23T19:27:49;10.65;;;2.92;;
37349;SDS011;23231;52.358;4.926;2024-03-23T19:32:50;10.73;;;2.58;;
37349;SDS011;23231;52.358;4.926;2024-03-23T19:37:50;10.10;;;2.30;;
37349;SDS011;23231;52.358;4.926;2024-03-23T19:42:51;9.68;;;2.67;;
37349;SDS011;23231;52.358;4.926;2024-03-23T19:47:51;11.88;;;2.42;;
37349;SDS011;23231;52.358;4.926;2024-03-23T19:52:55;12.15;;;2.63;;
37349;SDS011;23231;52.358;4.926;2024-03-23T19:57:55;9.98;;;2.95;;
37349;SDS011;23231;52.358;4.926;2024-03-23T20:02:58;9.18;;;2.95;;
37349;SDS011;23231;52.358;4.926;2024-03-23T20:13:08;6.80;;;2.88;;
37349;SDS011;23231;52.358;4.926;2024-03-23T20:18:08;4.97;;;1.83;;
37349;SDS011;23231;52.358;4.926;2024-03-23T20:23:09;6.80;;;2.72;;
37349;SDS011;23231;52.358;4.926;2024-03-23T20:28:12;13.90;;;2.47;;
37349;SDS011;23231;52.358;4.926;2024-03-23T20:33:14;6.30;;;1.92;;
37349;SDS011;23231;52.358;4.926;2024-03-23T20:38:17;5.60;;;2.10;;
37349;SDS011;23231;52.358;4.926;2024-03-23T20:43:23;17.17;;;3.17;;
37349;SDS011;23231;52.358;4.926;2024-03-23T20:48:26;10.07;;;2.83;;
37349;SDS011;23231;52.358;4.926;2024-03-23T20:53:28;10.63;;;2.83;;
37349;SDS011;23231;52.358;4.926;2024-03-23T20:58:35;14.40;;;3.13;;
37349;SDS011;23231;52.358;4.926;2024-03-23T21:03:38;10.52;;;2.60;;
37349;SDS011;23231;52.358;4.926;2024-03-23T21:08:41;10.15;;;2.63;;
37349;SDS011;23231;52.358;4.926;2024-03-23T21:13:41;9.05;;;2.13;;
37349;SDS011;23231;52.358;4.926;2024-03-23T21:18:42;7.78;;;1.75;;
37349;SDS011;23231;52.358;4.926;2024-03-23T21:23:42;8.07;;;2.20;;
37349;SDS011;23231;52.358;4.926;2024-03-23T21:28:43;7.35;;;1.85;;
37349;SDS011;23231;52.358;4.926;2024-03-23T21:33:46;9.45;;;1.90;;
37349;SDS011;23231;52.358;4.926;2024-03-23T21:38:48;14.75;;;2.13;;
37349;SDS011;23231;52.358;4.926;2024-03-23T21:43:50;6.30;;;1.98;;
37349;SDS011;23231;52.358;4.926;2024-03-23T21:48:50;9.20;;;2.20;;
37349;SDS011;23231;52.358;4.926;2024-03-23T21:53:54;5.82;;;1.80;;
37349;SDS011;23231;52.358;4.926;2024-03-23T21:58:58;6.38;;;2.10;;
37349;SDS011;23231;52.358;4.926;2024-03-23T22:04:05;7.10;;;2.10;;
37349;SDS011;23231;52.358;4.926;2024-03-23T22:09:08;7.28;;;2.15;;
37349;SDS011;23231;52.358;4.926;2024-03-23T22:14:10;5.85;;;1.98;;
37349;SDS011;23231;52.358;4.926;2024-03-23T22:19:10;7.15;;;2.22;;
37349;SDS011;23231;52.358;4.926;2024-03-23T22:24:12;9.05;;;2.20;;
37349;SDS011;23231;52.358;4.926;2024-03-23T22:29:15;4.90;;;1.88;;
37349;SDS011;23231;52.358;4.926;2024-03-23T22:34:15;8.25;;;2.20;;
37349;SDS011;23231;52.358;4.926;2024-03-23T22:39:18;8.18;;;2.13;;
37349;SDS011;23231;52.358;4.926;2024-03-23T22:44:18;9.02;;;2.17;;
37349;SDS011;23231;52.358;4.926;2024-03-23T22:49:19;6.45;;;2.90;;
37349;SDS011;23231;52.358;4.926;2024-03-23T22:54:19;7.75;;;2.72;;
37349;SDS011;23231;52.358;4.926;2024-03-23T22:59:21;10.02;;;3.35;;
37349;SDS011;23231;52.358;4.926;2024-03-23T23:04:22;9.75;;;4.20;;
37349;SDS011;23231;52.358;4.926;2024-03-23T23:09:23;12.20;;;4.13;;
37349;SDS011;23231;52.358;4.926;2024-03-23T23:14:23;12.75;;;3.63;;
37349;SDS011;23231;52.358;4.926;2024-03-23T23:19:25;14.02;;;3.83;;
37349;SDS011;23231;52.358;4.926;2024-03-23T23:24:26;9.27;;;3.85;;
37349;SDS011;23231;52.358;4.926;2024-03-23T23:29:26;12.73;;;4.35;;
37349;SDS011;23231;52.358;4.926;2024-03-23T23:34:29;11.00;;;4.05;;
37349;SDS011;23231;52.358;4.926;2024-03-23T23:39:33;11.65;;;3.78;;
37349;SDS011;23231;52.358;4.926;2024-03-23T23:44:36;15.13;;;3.30;;
37349;SDS011;23231;52.358;4.926;2024-03-23T23:49:38;11.50;;;3.92;;
37349;SDS011;23231;52.358;4.926;2024-03-23T23:54:41;18.00;;;4.35;;
37349;SDS011;23231;52.358;4.926;2024-03-23T23:59:44;9.23;;;3.42;;
